Time;durP1;ratioP1;P1;durP2;ratioP2;P2;SDS_P1;SDS_P2;PMS_P1;PMS_P2;Temp;Humidity;BMP_temperature;BMP_pressure;BME280_temperature;BME280_humidity;BME280_pressure;Samples;Min_cycle;Max_cycle;Signal;HPM_P1;HPM_P2
2021/08/07 00:00:41;;;;;;;0.40;0.40;;;17.70;90.40;;;;;;5075317;28;20056;-75
2021/08/07 00:03:06;;;;;;;0.30;0.30;;;17.60;90.50;;;;;;5075419;28;20469;-76
2021/08/07 00:05:32;;;;;;;0.50;0.50;;;17.50;90.50;;;;;;5057356;28;20025;-75
2021/08/07 00:07:57;;;;;;;0.50;0.50;;;17.50;90.50;;;;;;5075299;28;20132;-76
2021/08/07 00:10:24;;;;;;;0.30;0.30;;;17.50;90.50;;;;;;5074782;28;20051;-76
2021/08/07 00:12:50;;;;;;;0.52;0.50;;;17.50;90.50;;;;;;5075146;28;20020;-75
2021/08/07 00:15:15;;;;;;;0.50;0.50;;;17.50;90.50;;;;;;5057210;28;20040;-76
2021/08/07 00:17:41;;;;;;;0.82;0.40;;;17.50;90.60;;;;;;5075116;28;20428;-75
2021/08/07 00:20:08;;;;;;;0.82;0.73;;;17.50;90.60;;;;;;5075051;28;20095;-75
2021/08/07 00:22:33;;;;;;;0.40;0.40;;;17.40;90.50;;;;;;5075065;28;20078;-75
2021/08/07 00:25:02;;;;;;;0.30;0.30;;;17.40;90.50;;;;;;5074479;28;20024;-75
2021/08/07 00:27:27;;;;;;;0.40;0.40;;;17.40;90.60;;;;;;5074937;28;20036;-75
2021/08/07 00:29:53;;;;;;;0.50;0.50;;;17.40;90.50;;;;;;5074950;28;20381;-76
2021/08/07 00:32:19;;;;;;;1.13;0.70;;;17.40;90.50;;;;;;5074937;28;20511;-75
2021/08/07 00:34:44;;;;;;;0.32;0.32;;;17.40;90.50;;;;;;5074981;28;20470;-75
2021/08/07 00:37:09;;;;;;;0.30;0.30;;;17.40;90.50;;;;;;5074709;28;20052;-75
2021/08/07 00:39:35;;;;;;;0.52;0.45;;;17.40;90.50;;;;;;5056307;28;20495;-75
2021/08/07 00:42:01;;;;;;;0.35;0.35;;;17.40;90.50;;;;;;5074832;28;20028;-75
2021/08/07 00:44:26;;;;;;;0.50;0.50;;;17.40;90.50;;;;;;5074683;28;20095;-75
2021/08/07 00:46:52;;;;;;;0.60;0.60;;;17.40;90.50;;;;;;5074545;28;20469;-76
2021/08/07 00:49:18;;;;;;;0.77;0.35;;;17.30;90.50;;;;;;5074577;28;20060;-75
2021/08/07 00:51:45;;;;;;;0.47;0.47;;;17.30;90.50;;;;;;5074329;28;20021;-76
2021/08/07 00:54:12;;;;;;;0.43;0.43;;;17.30;90.50;;;;;;5073929;28;20090;-75
2021/08/07 00:56:37;;;;;;;1.08;0.70;;;17.30;90.50;;;;;;5074288;28;20409;-75
2021/08/07 00:59:03;;;;;;;0.40;0.40;;;17.30;90.60;;;;;;5074037;28;20389;-76
2021/08/07 01:01:36;;;;;;;0.40;0.40;;;17.30;90.60;;;;;;5074226;28;20021;-75
2021/08/07 01:04:04;;;;;;;0.45;0.45;;;17.30;90.50;;;;;;5073535;28;20023;-76
2021/08/07 01:06:35;;;;;;;0.57;0.57;;;17.30;90.50;;;;;;5074151;28;20028;-76
2021/08/07 01:09:09;;;;;;;0.40;0.40;;;17.30;90.50;;;;;;5073687;28;20024;-76
2021/08/07 01:12:04;;;;;;;0.52;0.52;;;17.30;90.40;;;;;;5074111;28;20017;-75
2021/08/07 01:14:38;;;;;;;0.55;0.55;;;17.30;90.40;;;;;;5074143;28;20107;-76
2021/08/07 01:17:06;;;;;;;0.47;0.47;;;17.30;90.50;;;;;;5073840;28;20060;-76
2021/08/07 01:19:46;;;;;;;0.60;0.60;;;17.30;90.50;;;;;;5074592;28;20040;-76
2021/08/07 01:22:13;;;;;;;;;;;17.30;90.40;;;;;;5073756;28;20025;-76
2021/08/07 01:24:51;;;;;;;0.50;0.40;;;17.20;90.50;;;;;;5073855;28;20415;-75
2021/08/07 01:27:27;;;;;;;1.05;0.95;;;17.20;90.50;;;;;;5074055;28;20016;-75
2021/08/07 01:29:55;;;;;;;0.40;0.40;;;17.20;90.40;;;;;;5073761;28;20381;-76
2021/08/07 01:32:26;;;;;;;0.60;0.60;;;17.20;90.50;;;;;;5073704;28;20365;-76
2021/08/07 01:34:53;;;;;;;1.70;0.50;;;17.20;90.50;;;;;;5073685;28;20532;-76
2021/08/07 01:37:19;;;;;;;0.57;0.50;;;17.20;90.50;;;;;;5073091;28;20025;-75
2021/08/07 01:39:47;;;;;;;0.73;0.73;;;17.20;90.50;;;;;;5073673;28;20458;-75
2021/08/07 01:42:13;;;;;;;0.85;0.70;;;17.20;90.50;;;;;;5073521;28;20442;-76
2021/08/07 01:44:38;;;;;;;0.57;0.57;;;17.20;90.50;;;;;;5073473;28;20054;-75
2021/08/07 01:47:14;;;;;;;0.70;0.70;;;17.30;90.60;;;;;;5073781;28;20576;-75
2021/08/07 01:49:47;;;;;;;0.57;0.57;;;17.20;90.50;;;;;;5073449;28;20085;-76
2021/08/07 01:52:18;;;;;;;0.60;0.60;;;17.30;90.60;;;;;;5072949;28;20063;-75
2021/08/07 01:54:48;;;;;;;0.60;0.60;;;17.30;90.60;;;;;;5073402;28;20063;-75
2021/08/07 01:57:21;;;;;;;0.60;0.60;;;17.20;90.60;;;;;;5073330;28;20488;-75
2021/08/07 01:59:49;;;;;;;0.75;0.75;;;17.30;90.60;;;;;;5073275;28;20127;-75
2021/08/07 02:02:15;;;;;;;0.88;0.82;;;17.20;90.60;;;;;;5073354;28;20033;-75
2021/08/07 02:04:41;;;;;;;0.70;0.70;;;17.20;90.60;;;;;;5055373;28;20028;-76
2021/08/07 02:07:07;;;;;;;0.80;0.80;;;17.20;90.70;;;;;;5072755;28;20023;-76
2021/08/07 02:09:33;;;;;;;0.65;0.65;;;17.20;90.70;;;;;;5073175;28;20523;-76
2021/08/07 02:12:00;;;;;;;1.00;0.85;;;17.20;90.70;;;;;;5073249;28;20021;-76
2021/08/07 02:14:27;;;;;;;0.68;0.68;;;17.20;90.80;;;;;;5073186;28;20012;-77
2021/08/07 02:16:54;;;;;;;0.80;0.68;;;17.10;90.70;;;;;;5073056;28;20142;-77
2021/08/07 02:19:20;;;;;;;0.77;0.60;;;17.10;90.80;;;;;;5072993;28;20024;-76
2021/08/07 02:21:46;;;;;;;2.60;1.00;;;17.10;90.80;;;;;;5072711;28;20498;-76
2021/08/07 02:24:12;;;;;;;0.57;0.57;;;17.10;90.80;;;;;;5073157;28;20021;-76
2021/08/07 02:26:38;;;;;;;0.77;0.60;;;17.00;90.80;;;;;;5073198;28;20544;-76
2021/08/07 02:29:05;;;;;;;0.52;0.50;;;17.00;90.80;;;;;;5073134;28;20385;-76
2021/08/07 02:31:32;;;;;;;0.60;0.60;;;17.00;90.90;;;;;;5054934;28;20025;-76
2021/08/07 02:33:59;;;;;;;0.75;0.63;;;16.90;90.90;;;;;;5073011;28;20027;-76
2021/08/07 02:36:25;;;;;;;0.75;0.75;;;16.90;90.90;;;;;;5072532;28;20496;-75
2021/08/07 02:38:52;;;;;;;1.02;0.98;;;16.90;90.90;;;;;;5072946;28;20525;-76
2021/08/07 02:41:18;;;;;;;0.82;0.82;;;16.80;90.90;;;;;;5072880;28;20067;-76
2021/08/07 02:43:46;;;;;;;0.57;0.57;;;16.80;90.90;;;;;;5073092;28;20036;-76
2021/08/07 02:46:11;;;;;;;1.00;0.90;;;16.80;90.90;;;;;;5072831;28;20048;-76
2021/08/07 02:48:37;;;;;;;1.13;0.68;;;16.80;90.90;;;;;;5072805;28;20041;-75
2021/08/07 02:51:03;;;;;;;0.70;0.70;;;16.70;90.90;;;;;;5072387;28;20056;-76
2021/08/07 02:53:30;;;;;;;0.90;0.70;;;16.70;90.90;;;;;;5072821;28;20187;-76
2021/08/07 02:55:55;;;;;;;0.80;0.70;;;16.70;91.00;;;;;;5072788;28;20040;-75
2021/08/07 02:58:22;;;;;;;1.23;1.02;;;16.70;91.00;;;;;;5072636;28;20039;-75
2021/08/07 03:00:47;;;;;;;1.00;0.80;;;16.70;91.00;;;;;;5072689;28;20068;-75
2021/08/07 03:03:13;;;;;;;0.77;0.68;;;16.60;91.30;;;;;;5072729;28;20091;-75
2021/08/07 03:05:38;;;;;;;1.08;0.77;;;16.60;91.00;;;;;;5072092;28;20103;-75
2021/08/07 03:08:05;;;;;;;1.00;0.90;;;16.60;91.00;;;;;;5072698;28;20373;-75
2021/08/07 03:10:31;;;;;;;1.77;0.90;;;16.60;91.10;;;;;;5072746;28;20048;-75
2021/08/07 03:12:57;;;;;;;1.58;0.75;;;16.60;91.10;;;;;;5072681;28;20032;-75
2021/08/07 03:15:24;;;;;;;1.50;0.68;;;16.60;91.10;;;;;;5072612;28;20050;-76
2021/08/07 03:17:50;;;;;;;0.73;0.70;;;16.60;91.00;;;;;;5072112;28;20066;-75
2021/08/07 03:20:16;;;;;;;0.70;0.70;;;16.60;91.00;;;;;;5072603;28;20035;-75
2021/08/07 03:22:42;;;;;;;0.93;0.80;;;16.60;91.30;;;;;;5072556;28;20020;-75
2021/08/07 03:25:09;;;;;;;0.60;0.60;;;16.60;91.00;;;;;;5072518;28;20028;-75
2021/08/07 03:27:35;;;;;;;0.90;0.52;;;16.60;91.10;;;;;;5075785;28;20606;-75
2021/08/07 03:30:01;;;;;;;0.85;0.70;;;16.50;91.10;;;;;;5076112;28;20049;-75
2021/08/07 03:32:26;;;;;;;0.80;0.80;;;16.50;91.10;;;;;;5075567;28;20028;-74
2021/08/07 03:34:51;;;;;;;0.68;0.68;;;16.50;91.10;;;;;;5075741;28;20040;-75
2021/08/07 03:37:17;;;;;;;0.50;0.50;;;16.50;91.10;;;;;;5075991;28;20056;-74
2021/08/07 03:39:43;;;;;;;0.60;0.60;;;16.50;91.10;;;;;;5075922;28;20505;-75
2021/08/07 03:42:08;;;;;;;0.63;0.63;;;16.40;91.40;;;;;;5075924;28;20021;-76
2021/08/07 03:44:34;;;;;;;0.60;0.60;;;16.40;91.10;;;;;;5075698;28;20104;-75
2021/08/07 03:46:59;;;;;;;0.98;0.68;;;16.40;91.10;;;;;;5075191;28;20340;-74
2021/08/07 03:49:25;;;;;;;0.93;0.65;;;16.40;91.10;;;;;;5075865;28;20012;-75
2021/08/07 03:51:51;;;;;;;0.63;0.63;;;16.40;91.10;;;;;;5057613;28;20029;-75
2021/08/07 03:54:16;;;;;;;0.40;0.40;;;16.50;91.10;;;;;;5075659;28;20024;-75
2021/08/07 03:56:42;;;;;;;0.55;0.55;;;16.40;91.00;;;;;;5057400;28;20036;-75
2021/08/07 03:59:07;;;;;;;0.70;0.60;;;16.40;91.00;;;;;;5075431;28;20105;-75
2021/08/07 04:01:33;;;;;;;0.47;0.47;;;16.50;91.00;;;;;;5074955;28;20059;-75
2021/08/07 04:03:58;;;;;;;0.28;0.28;;;16.50;90.90;;;;;;5075334;28;20107;-74
2021/08/07 04:06:24;;;;;;;0.30;0.30;;;16.50;90.90;;;;;;5075451;28;20143;-75
2021/08/07 04:08:49;;;;;;;0.60;0.60;;;16.50;90.90;;;;;;5075270;28;20020;-75
2021/08/07 04:11:15;;;;;;;0.50;0.47;;;16.60;90.90;;;;;;5075330;28;20480;-75
2021/08/07 04:13:41;;;;;;;0.47;0.47;;;16.60;90.80;;;;;;5075161;28;20024;-75
2021/08/07 04:16:07;;;;;;;0.30;0.30;;;16.70;90.80;;;;;;5074739;28;20033;-75
2021/08/07 04:18:33;;;;;;;1.10;0.70;;;16.70;90.80;;;;;;5057316;28;20107;-74
2021/08/07 04:20:58;;;;;;;0.50;0.50;;;16.70;90.80;;;;;;5075017;28;20079;-75
2021/08/07 04:23:24;;;;;;;0.50;0.50;;;16.70;90.80;;;;;;5074983;28;20362;-75
2021/08/07 04:25:49;;;;;;;0.98;0.80;;;16.70;90.80;;;;;;5056867;28;20020;-74
2021/08/07 04:28:15;;;;;;;0.60;0.40;;;16.70;90.80;;;;;;5075036;28;20020;-75
2021/08/07 04:30:40;;;;;;;0.65;0.65;;;16.80;90.80;;;;;;5074551;28;20380;-75
2021/08/07 04:33:08;;;;;;;0.77;0.40;;;16.80;90.80;;;;;;5074895;28;20024;-75
2021/08/07 04:35:33;;;;;;;0.43;0.43;;;16.70;90.80;;;;;;5075122;28;20043;-75
2021/08/07 04:37:59;;;;;;;0.50;0.50;;;16.80;90.90;;;;;;5073548;28;20024;-75
2021/08/07 04:40:26;;;;;;;0.50;0.50;;;16.80;90.90;;;;;;5074734;28;20465;-74
2021/08/07 04:42:52;;;;;;;0.25;0.25;;;16.80;90.80;;;;;;5074709;28;20594;-74
2021/08/07 04:45:19;;;;;;;0.45;0.45;;;16.80;90.80;;;;;;5073913;28;20060;-75
2021/08/07 04:48:05;;;;;;;0.77;0.50;;;16.80;90.80;;;;;;5074576;28;20035;-74
2021/08/07 04:50:33;;;;;;;0.30;0.30;;;16.90;90.80;;;;;;5056614;28;20369;-75
2021/08/07 04:52:59;;;;;;;1.40;0.90;;;16.90;90.80;;;;;;5074446;28;20016;-75
2021/08/07 04:55:25;;;;;;;0.40;0.40;;;16.90;90.80;;;;;;5074202;28;20032;-75
2021/08/07 04:57:52;;;;;;;0.40;0.40;;;16.90;90.80;;;;;;5074144;28;20024;-75
2021/08/07 05:00:18;;;;;;;0.45;0.30;;;16.90;90.80;;;;;;5073681;28;20044;-75
2021/08/07 05:02:46;;;;;;;0.65;0.65;;;16.90;90.80;;;;;;5074242;28;20025;-75
2021/08/07 05:05:13;;;;;;;0.70;0.60;;;17.00;90.80;;;;;;5074159;28;20086;-74
2021/08/07 05:07:39;;;;;;;1.10;0.77;;;17.00;90.70;;;;;;5073971;28;20028;-75
2021/08/07 05:10:06;;;;;;;0.35;0.32;;;17.10;90.70;;;;;;5074142;28;20031;-75
2021/08/07 05:12:31;;;;;;;0.40;0.40;;;17.10;90.70;;;;;;5073994;28;20016;-75
2021/08/07 05:14:57;;;;;;;0.45;0.45;;;17.20;90.60;;;;;;5073518;28;20035;-75
2021/08/07 05:17:24;;;;;;;0.70;0.65;;;17.30;90.60;;;;;;5074110;28;20024;-75
2021/08/07 05:19:50;;;;;;;0.77;0.60;;;17.30;90.50;;;;;;5073665;28;20028;-75
2021/08/07 05:22:17;;;;;;;0.50;0.50;;;17.30;90.50;;;;;;5074008;28;20028;-75
2021/08/07 05:24:43;;;;;;;0.80;0.40;;;17.30;90.50;;;;;;5073908;28;20020;-75
2021/08/07 05:27:09;;;;;;;0.70;0.52;;;17.40;90.60;;;;;;5073520;28;20073;-75
2021/08/07 05:29:34;;;;;;;0.65;0.63;;;17.40;90.80;;;;;;5073391;28;20492;-75
2021/08/07 05:32:00;;;;;;;1.05;0.63;;;17.40;90.60;;;;;;5073695;28;20028;-75
2021/08/07 05:34:26;;;;;;;0.57;0.50;;;17.40;90.60;;;;;;5073787;28;20031;-75
2021/08/07 05:36:51;;;;;;;0.20;0.20;;;17.40;90.50;;;;;;5073436;28;20078;-75
2021/08/07 05:39:17;;;;;;;0.63;0.50;;;17.50;90.60;;;;;;5073593;28;20024;-75
2021/08/07 05:41:42;;;;;;;0.70;0.70;;;17.50;90.50;;;;;;5055669;28;20480;-75
2021/08/07 05:44:08;;;;;;;0.43;0.43;;;17.50;90.50;;;;;;5073015;28;20026;-75
2021/08/07 05:46:33;;;;;;;0.22;0.22;;;17.50;90.50;;;;;;5073635;28;20377;-75
2021/08/07 05:48:59;;;;;;;0.60;0.60;;;17.50;90.50;;;;;;5073177;28;20500;-74
2021/08/07 05:51:25;;;;;;;0.30;0.30;;;17.60;90.50;;;;;;5055304;28;20115;-75
2021/08/07 05:53:52;;;;;;;0.50;0.50;;;17.60;90.70;;;;;;5073297;28;20020;-75
2021/08/07 05:56:17;;;;;;;0.57;0.50;;;17.70;90.30;;;;;;5073310;28;20032;-75
2021/08/07 05:58:43;;;;;;;0.40;0.40;;;17.80;90.30;;;;;;5072897;28;20021;-75
2021/08/07 06:01:09;;;;;;;0.60;0.50;;;17.70;90.30;;;;;;5073145;28;20064;-75
2021/08/07 06:03:35;;;;;;;0.47;0.43;;;17.70;90.30;;;;;;5055214;28;20025;-75
2021/08/07 06:06:01;;;;;;;0.30;0.30;;;17.80;90.30;;;;;;5073262;28;20024;-75
2021/08/07 06:08:30;;;;;;;1.08;0.57;;;17.80;90.30;;;;;;5073290;28;20029;-75
2021/08/07 06:10:57;;;;;;;3.55;0.57;;;17.80;90.20;;;;;;5073169;28;20028;-75
2021/08/07 06:13:23;;;;;;;0.30;0.20;;;17.80;90.20;;;;;;5054779;28;20070;-75
2021/08/07 06:15:49;;;;;;;0.50;0.50;;;17.90;90.20;;;;;;5055089;28;20032;-75
2021/08/07 06:18:14;;;;;;;0.40;0.40;;;18.00;90.10;;;;;;5073131;28;20024;-75
2021/08/07 06:20:40;;;;;;;0.52;0.35;;;18.20;90.00;;;;;;5073197;28;20025;-75
2021/08/07 06:23:06;;;;;;;0.20;0.20;;;18.30;89.90;;;;;;5073146;28;20067;-75
2021/08/07 06:25:31;;;;;;;0.20;0.20;;;18.30;89.80;;;;;;5072922;28;20473;-75
2021/08/07 06:27:57;;;;;;;0.40;0.40;;;18.30;89.80;;;;;;5072573;28;20382;-75
2021/08/07 06:30:24;;;;;;;0.30;0.30;;;18.40;89.90;;;;;;5073072;28;20016;-75
2021/08/07 06:32:50;;;;;;;0.50;0.50;;;18.40;89.90;;;;;;5072911;28;20031;-76
2021/08/07 06:35:16;;;;;;;0.32;0.32;;;18.40;89.90;;;;;;5072902;28;20024;-75
2021/08/07 06:37:42;;;;;;;0.57;0.47;;;18.40;90.00;;;;;;5072943;28;20020;-75
2021/08/07 06:40:09;;;;;;;0.40;0.40;;;18.50;90.00;;;;;;5072862;28;20542;-75
2021/08/07 06:42:35;;;;;;;0.32;0.17;;;18.50;90.00;;;;;;5072364;28;20024;-75
2021/08/07 06:45:00;;;;;;;0.55;0.50;;;18.50;90.00;;;;;;5072949;28;20074;-75
2021/08/07 06:47:26;;;;;;;0.30;0.30;;;18.60;90.10;;;;;;5072775;28;20036;-75
2021/08/07 06:49:51;;;;;;;0.20;0.20;;;18.60;90.00;;;;;;5072723;28;20462;-75
2021/08/07 06:52:17;;;;;;;0.30;0.30;;;18.70;89.80;;;;;;5072892;28;20021;-76
2021/08/07 06:54:43;;;;;;;0.30;0.30;;;18.80;89.70;;;;;;5072827;28;20021;-75
2021/08/07 06:57:13;;;;;;;0.68;0.30;;;18.80;89.80;;;;;;5072213;28;20033;-75
2021/08/07 06:59:38;;;;;;;0.20;0.20;;;18.80;90.00;;;;;;5072506;28;20094;-75
2021/08/07 07:02:04;;;;;;;0.30;0.30;;;18.80;89.90;;;;;;5057647;28;20504;-75
2021/08/07 07:04:30;;;;;;;0.20;0.20;;;19.00;89.80;;;;;;5058557;28;20013;-76
2021/08/07 07:06:57;;;;;;;0.75;0.20;;;19.20;89.40;;;;;;5076452;28;20017;-75
2021/08/07 07:09:22;;;;;;;0.40;0.40;;;19.30;89.10;;;;;;5076341;28;20024;-76
2021/08/07 07:11:48;;;;;;;0.10;0.10;;;19.30;88.90;;;;;;5075833;28;20028;-75
2021/08/07 07:14:14;;;;;;;0.20;0.20;;;19.40;88.70;;;;;;5076459;28;20020;-75
2021/08/07 07:16:39;;;;;;;0.55;0.30;;;19.60;88.70;;;;;;5076180;28;20055;-76
2021/08/07 07:19:05;;;;;;;0.85;0.40;;;19.70;88.40;;;;;;5076335;28;20470;-75
2021/08/07 07:21:31;;;;;;;0.43;0.30;;;19.80;88.20;;;;;;5058218;28;20082;-75
2021/08/07 07:23:56;;;;;;;0.13;0.13;;;19.80;88.10;;;;;;5076339;28;20025;-75
2021/08/07 07:26:22;;;;;;;0.10;0.10;;;19.70;88.30;;;;;;5075618;28;20083;-75
2021/08/07 07:28:47;;;;;;;0.22;0.20;;;19.60;88.70;;;;;;5075967;28;20024;-75
2021/08/07 07:31:13;;;;;;;0.20;0.20;;;19.50;88.90;;;;;;5075929;28;20024;-75
2021/08/07 07:33:38;;;;;;;1.25;0.20;;;19.50;89.00;;;;;;5075886;28;20538;-76
2021/08/07 07:36:04;;;;;;;0.25;0.17;;;19.50;88.90;;;;;;5075793;28;20037;-75
2021/08/07 07:38:30;;;;;;;0.30;0.25;;;19.60;88.60;;;;;;5057932;28;20025;-75
2021/08/07 07:40:56;;;;;;;0.03;0.03;;;19.70;88.40;;;;;;5075462;28;20389;-75
2021/08/07 07:43:22;;;;;;;0.15;0.15;;;19.70;88.30;;;;;;5075864;28;20021;-75
2021/08/07 07:45:47;;;;;;;0.70;0.30;;;19.80;88.10;;;;;;5075746;28;20025;-76
2021/08/07 07:48:13;;;;;;;0.17;0.17;;;19.80;88.10;;;;;;5075741;28;20021;-75
2021/08/07 07:50:39;;;;;;;0.30;0.30;;;19.80;88.10;;;;;;5075683;28;20029;-75
2021/08/07 07:53:04;;;;;;;0.35;0.30;;;19.80;88.20;;;;;;5075615;28;20013;-75
2021/08/07 07:55:30;;;;;;;0.20;0.20;;;19.80;88.10;;;;;;5075155;28;20496;-75
2021/08/07 07:57:59;;;;;;;0.60;0.30;;;19.80;88.10;;;;;;5075451;28;20457;-75
2021/08/07 08:00:25;;;;;;;0.10;0.10;;;19.90;88.00;;;;;;5075239;28;20400;-75
2021/08/07 08:02:51;;;;;;;0.20;0.20;;;20.10;87.80;;;;;;5075674;28;20024;-75
2021/08/07 08:05:17;;;;;;;0.20;0.20;;;20.10;87.50;;;;;;5075532;28;20020;-76
2021/08/07 08:07:43;;;;;;;0.05;0.05;;;20.20;87.50;;;;;;5075300;28;20039;-75
2021/08/07 08:10:11;;;;;;;0.10;0.10;;;20.30;87.40;;;;;;5074788;28;20028;-75
2021/08/07 08:12:38;;;;;;;0.20;0.20;;;20.50;87.10;;;;;;5075010;28;20028;-75
2021/08/07 08:15:05;;;;;;;0.73;0.20;;;20.60;86.80;;;;;;5075200;28;20481;-75
2021/08/07 08:17:31;;;;;;;0.20;0.20;;;20.70;86.70;;;;;;5075128;28;20034;-75
2021/08/07 08:19:56;;;;;;;0.10;0.10;;;20.80;86.60;;;;;;5075100;28;20012;-75
2021/08/07 08:22:22;;;;;;;0.32;0.20;;;20.80;86.60;;;;;;5074670;28;20096;-75
2021/08/07 08:24:47;;;;;;;0.20;0.20;;;20.80;86.50;;;;;;5074915;28;20089;-75
2021/08/07 08:27:18;;;;;;;0.20;0.20;;;20.80;86.50;;;;;;5075216;28;20028;-75
2021/08/07 08:29:44;;;;;;;0.10;0.10;;;20.90;86.60;;;;;;5074926;28;20031;-76
2021/08/07 08:32:10;;;;;;;0.10;0.10;;;20.80;86.50;;;;;;5074947;28;20103;-75
2021/08/07 08:34:35;;;;;;;0.10;0.10;;;20.90;86.60;;;;;;5056956;28;20052;-76
2021/08/07 08:37:01;;;;;;;0.10;0.10;;;20.90;86.60;;;;;;5074169;28;20110;-76
2021/08/07 08:39:27;;;;;;;0.20;0.20;;;20.90;86.70;;;;;;5056812;28;20476;-75
2021/08/07 08:41:52;;;;;;;0.20;0.10;;;20.80;87.00;;;;;;5074530;28;20024;-75
2021/08/07 08:44:18;;;;;;;0.30;0.30;;;20.70;87.30;;;;;;5074813;28;20056;-75
2021/08/07 08:46:44;;;;;;;0.68;0.40;;;20.60;87.60;;;;;;5074476;28;20377;-75
2021/08/07 08:49:14;;;;;;;0.30;0.20;;;20.50;87.90;;;;;;5074506;28;20091;-75
2021/08/07 08:51:40;;;;;;;0.13;0.13;;;20.60;87.90;;;;;;5074192;28;20028;-75
2021/08/07 08:54:06;;;;;;;0.45;0.30;;;20.60;87.60;;;;;;5074260;28;20024;-76
2021/08/07 08:56:34;;;;;;;0.40;0.30;;;20.60;87.50;;;;;;5074376;28;20539;-75
2021/08/07 08:59:04;;;;;;;0.30;0.30;;;20.60;87.30;;;;;;5074143;28;20013;-75
2021/08/07 09:01:30;;;;;;;0.30;0.30;;;20.60;87.20;;;;;;5074270;28;20025;-76
2021/08/07 09:03:56;;;;;;;0.20;0.20;;;20.60;87.10;;;;;;5074434;28;20080;-75
2021/08/07 09:06:23;;;;;;;0.98;0.20;;;20.70;87.00;;;;;;5073792;28;20469;-75
2021/08/07 09:09:04;;;;;;;0.20;0.20;;;20.80;86.80;;;;;;5074082;28;20465;-75
2021/08/07 09:11:31;;;;;;;0.60;0.40;;;20.90;86.80;;;;;;5056239;28;20020;-75
2021/08/07 09:14:16;;;;;;;0.20;0.20;;;20.80;87.00;;;;;;5074082;28;20017;-75
2021/08/07 09:17:00;;;;;;;0.20;0.20;;;20.80;87.00;;;;;;5073811;28;20028;-75
2021/08/07 09:19:39;;;;;;;0.17;0.17;;;20.90;86.80;;;;;;5056126;28;20036;-75
2021/08/07 09:22:09;;;;;;;0.55;0.35;;;20.80;86.90;;;;;;5073455;28;20032;-75
2021/08/07 09:25:11;;;;;;;0.47;0.47;;;20.90;86.90;;;;;;5073181;28;20028;-75
2021/08/07 09:27:40;;;;;;;0.60;0.60;;;21.20;86.60;;;;;;5073803;28;20025;-75
2021/08/07 09:30:18;;;;;;;0.40;0.40;;;21.30;86.40;;;;;;5073718;28;20469;-75
2021/08/07 09:32:50;;;;;;;0.47;0.47;;;21.50;86.10;;;;;;5073625;28;20048;-75
2021/08/07 09:35:19;;;;;;;0.30;0.30;;;21.60;85.70;;;;;;5073372;28;20083;-75
2021/08/07 09:38:01;;;;;;;0.28;0.28;;;21.60;85.80;;;;;;5055772;28;20385;-75
2021/08/07 09:40:45;;;;;;;0.30;0.30;;;21.70;85.90;;;;;;5073658;28;20103;-75
2021/08/07 09:43:13;;;;;;;0.50;0.32;;;21.70;85.70;;;;;;5073554;28;20508;-76
2021/08/07 09:45:39;;;;;;;0.40;0.40;;;21.60;85.70;;;;;;5073456;28;20369;-75
2021/08/07 09:48:09;;;;;;;0.40;0.40;;;21.50;85.90;;;;;;5073546;28;20351;-75
2021/08/07 09:50:34;;;;;;;0.45;0.45;;;21.40;86.20;;;;;;5055079;28;20346;-75
2021/08/07 09:53:02;;;;;;;0.43;0.40;;;21.20;86.80;;;;;;5073473;28;20579;-75
2021/08/07 09:55:28;;;;;;;0.30;0.30;;;21.20;87.00;;;;;;5073223;28;20033;-75
2021/08/07 09:58:10;;;;;;;0.30;0.30;;;21.20;86.70;;;;;;5073301;28;20044;-75
2021/08/07 10:00:42;;;;;;;0.45;0.45;;;21.20;86.50;;;;;;5073311;28;20048;-75
2021/08/07 10:03:19;;;;;;;0.32;0.32;;;21.40;86.50;;;;;;5073273;28;20422;-75
2021/08/07 10:05:46;;;;;;;0.30;0.30;;;21.50;86.20;;;;;;5054768;28;20090;-75
2021/08/07 10:08:11;;;;;;;1.10;0.40;;;21.50;86.00;;;;;;5073128;28;20024;-75
2021/08/07 10:10:38;;;;;;;0.22;0.22;;;21.50;86.00;;;;;;5073532;28;20031;-75
2021/08/07 10:13:05;;;;;;;0.20;0.20;;;21.50;86.10;;;;;;5073248;28;20077;-75
2021/08/07 10:15:31;;;;;;;0.38;0.25;;;21.50;86.10;;;;;;5073109;28;20428;-75
2021/08/07 10:17:59;;;;;;;0.20;0.20;;;21.60;86.00;;;;;;5073162;28;20489;-75
2021/08/07 10:20:25;;;;;;;0.38;0.35;;;21.60;86.00;;;;;;5072672;28;20024;-76
2021/08/07 10:22:52;;;;;;;0.43;0.43;;;21.50;85.90;;;;;;5073189;28;20025;-75
2021/08/07 10:25:18;;;;;;;0.10;0.10;;;21.50;86.00;;;;;;5072984;28;20048;-75
2021/08/07 10:27:44;;;;;;;0.40;0.40;;;21.40;85.90;;;;;;5073211;28;20063;-76
2021/08/07 10:30:13;;;;;;;0.40;0.40;;;21.40;85.90;;;;;;5073035;28;20423;-76
2021/08/07 10:32:43;;;;;;;0.30;0.30;;;21.60;85.80;;;;;;5073084;28;20024;-75
2021/08/07 10:35:11;;;;;;;0.52;0.30;;;21.90;85.40;;;;;;5055847;28;20056;-76
2021/08/07 10:37:39;;;;;;;0.30;0.30;;;22.10;84.80;;;;;;5077099;28;20446;-75
2021/08/07 10:40:07;;;;;;;0.20;0.20;;;22.30;84.60;;;;;;5059024;28;20099;-75
2021/08/07 10:42:33;;;;;;;0.63;0.63;;;22.30;84.50;;;;;;5076815;28;20119;-75
2021/08/07 10:45:00;;;;;;;0.47;0.47;;;22.20;84.50;;;;;;5077045;28;20029;-75
2021/08/07 10:47:42;;;;;;;1.85;0.68;;;22.30;84.80;;;;;;5076332;28;20100;-75
2021/08/07 10:50:26;;;;;;;0.10;0.10;;;22.50;84.60;;;;;;5076777;28;20103;-75
2021/08/07 10:53:03;;;;;;;0.47;0.32;;;22.80;84.40;;;;;;5076838;28;20531;-75
2021/08/07 10:55:49;;;;;;;0.40;0.40;;;22.90;83.80;;;;;;5076759;28;20043;-75
2021/08/07 10:58:35;;;;;;;0.20;0.20;;;23.00;83.90;;;;;;5076570;28;20017;-75
2021/08/07 11:01:19;;;;;;;0.50;0.50;;;23.00;84.00;;;;;;5076583;28;20072;-75
2021/08/07 11:03:47;;;;;;;0.47;0.47;;;23.00;83.90;;;;;;5058043;28;20027;-75
2021/08/07 11:06:13;;;;;;;0.33;0.33;;;22.80;84.00;;;;;;5076642;28;20027;-76
2021/08/07 11:08:39;;;;;;;0.40;0.40;;;22.50;84.40;;;;;;5058465;28;20028;-75
2021/08/07 11:11:27;;;;;;;0.45;0.45;;;22.40;84.70;;;;;;5076526;28;20057;-75
2021/08/07 11:13:52;;;;;;;0.55;0.40;;;22.40;84.80;;;;;;5076479;28;20489;-76
2021/08/07 11:16:22;;;;;;;0.25;0.25;;;22.50;84.60;;;;;;5076249;28;20032;-75
2021/08/07 11:18:47;;;;;;;;;;;22.80;84.20;;;;;;5076670;28;20028;-75
2021/08/07 11:21:51;;;;;;;0.30;0.30;;;22.90;84.30;;;;;;5076198;28;19905;-75
2021/08/07 11:24:48;;;;;;;0.43;0.32;;;22.90;83.90;;;;;;5076234;28;20020;-75
2021/08/07 11:27:15;;;;;;;0.32;0.32;;;23.00;84.00;;;;;;5075933;28;20111;-75
2021/08/07 11:30:19;;;;;;;0.55;0.40;;;23.00;84.70;;;;;;5076110;28;20103;-75
2021/08/07 11:33:06;;;;;;;0.25;0.25;;;23.20;84.30;;;;;;4994087;28;20034;-75
2021/08/07 11:35:35;;;;;;;0.60;0.40;;;23.40;84.20;;;;;;4994615;28;20034;-75
2021/08/07 11:38:14;;;;;;;0.32;0.20;;;23.60;84.30;;;;;;4994270;28;20046;-75
2021/08/07 11:40:44;;;;;;;0.88;0.20;;;24.00;83.90;;;;;;4994533;28;20026;-75
2021/08/07 11:43:32;;;;;;;0.20;0.20;;;24.60;82.80;;;;;;4994561;28;20066;-75
2021/08/07 11:45:59;;;;;;;0.45;0.45;;;25.00;81.50;;;;;;4994016;28;20031;-75
2021/08/07 11:48:29;;;;;;;0.30;0.30;;;24.90;81.30;;;;;;4993834;28;20030;-76
2021/08/07 11:50:56;;;;;;;0.30;0.30;;;25.30;81.30;;;;;;4994616;28;20037;-76
2021/08/07 11:53:23;;;;;;;0.40;0.40;;;25.60;80.30;;;;;;4994379;28;20505;-76
2021/08/07 11:55:58;;;;;;;0.80;0.35;;;25.90;79.70;;;;;;4994163;28;20412;-75
2021/08/07 11:58:25;;;;;;;0.68;0.40;;;26.50;79.00;;;;;;4994191;28;20555;-76
2021/08/07 12:00:55;;;;;;;0.22;0.22;;;27.10;78.10;;;;;;4993491;28;20054;-76
2021/08/07 12:03:21;;;;;;;0.25;0.25;;;27.50;77.00;;;;;;5030071;28;20106;-75
2021/08/07 12:05:57;;;;;;;0.28;0.28;;;27.80;76.40;;;;;;5075501;28;20465;-75
2021/08/07 12:08:32;;;;;;;0.50;0.50;;;27.40;76.20;;;;;;5057325;28;20496;-75
2021/08/07 12:11:00;;;;;;;1.77;0.55;;;26.90;77.10;;;;;;5075368;28;20028;-75
2021/08/07 12:13:33;;;;;;;0.55;0.30;;;26.80;77.80;;;;;;5075377;28;20013;-75
2021/08/07 12:16:05;;;;;;;0.38;0.38;;;27.10;77.60;;;;;;5057029;28;20089;-75
2021/08/07 12:18:49;;;;;;;0.30;0.30;;;27.50;77.00;;;;;;5075183;28;20024;-75
2021/08/07 12:21:24;;;;;;;0.30;0.30;;;28.00;76.20;;;;;;5075310;28;20028;-76
2021/08/07 12:24:08;;;;;;;0.43;0.20;;;28.30;75.40;;;;;;5075008;28;20031;-77
2021/08/07 12:26:51;;;;;;;0.17;0.17;;;28.20;75.20;;;;;;5075035;28;20435;-77
2021/08/07 12:29:22;;;;;;;0.45;0.45;;;27.90;75.50;;;;;;5056911;28;20032;-77
2021/08/07 12:31:52;;;;;;;0.50;0.30;;;27.60;75.80;;;;;;5074886;28;20047;-77
2021/08/07 12:34:21;;;;;;;0.25;0.25;;;27.30;76.70;;;;;;5075018;28;20107;-75
2021/08/07 12:37:06;;;;;;;0.45;0.40;;;27.10;76.80;;;;;;5074780;28;20028;-76
2021/08/07 12:39:53;;;;;;;0.20;0.20;;;27.10;77.00;;;;;;5074921;28;20024;-76
2021/08/07 12:42:23;;;;;;;0.40;0.35;;;27.20;76.70;;;;;;5074785;28;20354;-75
2021/08/07 12:45:04;;;;;;;0.50;0.40;;;26.80;76.80;;;;;;5074300;28;20024;-75
2021/08/07 12:47:32;;;;;;;0.65;0.30;;;26.00;77.30;;;;;;5074630;28;20024;-76
2021/08/07 12:50:10;;;;;;;0.40;0.40;;;25.40;78.60;;;;;;5074607;28;20496;-75
2021/08/07 12:52:55;;;;;;;0.65;0.65;;;24.90;79.50;;;;;;5074727;28;20085;-77
2021/08/07 12:55:21;;;;;;;0.13;0.13;;;25.10;79.10;;;;;;5074611;28;20016;-76